sensor_id;sensor_type;location;lat;lon;timestamp;P1;durP1;ratioP1;P2;durP2;ratioP2
28170;SDS011;15458;53.346;-1.688;2022-11-20T00:01:12;22.52;;;10.98;;
28170;SDS011;15458;53.346;-1.688;2022-11-20T00:03:43;26.13;;;11.05;;
28170;SDS011;15458;53.346;-1.688;2022-11-20T00:06:12;28.38;;;11.25;;
28170;SDS011;15458;53.346;-1.688;2022-11-20T00:08:40;26.20;;;11.60;;
28170;SDS011;15458;53.346;-1.688;2022-11-20T00:11:16;33.40;;;11.93;;
28170;SDS011;15458;53.346;-1.688;2022-11-20T00:13:44;30.30;;;11.80;;
28170;SDS011;15458;53.346;-1.688;2022-11-20T00:16:13;31.00;;;12.50;;
28170;SDS011;15458;53.346;-1.688;2022-11-20T00:18:41;25.42;;;11.50;;
28170;SDS011;15458;53.346;-1.688;2022-11-20T00:21:17;29.77;;;13.02;;
28170;SDS011;15458;53.346;-1.688;2022-11-20T00:23:46;28.05;;;11.07;;
28170;SDS011;15458;53.346;-1.688;2022-11-20T00:26:13;27.58;;;11.88;;
28170;SDS011;15458;53.346;-1.688;2022-11-20T00:28:40;29.95;;;12.05;;
28170;SDS011;15458;53.346;-1.688;2022-11-20T00:31:12;32.58;;;11.25;;
28170;SDS011;15458;53.346;-1.688;2022-11-20T00:33:41;47.88;;;15.23;;
28170;SDS011;15458;53.346;-1.688;2022-11-20T00:36:11;36.78;;;14.80;;
28170;SDS011;15458;53.346;-1.688;2022-11-20T00:38:39;34.55;;;12.55;;
28170;SDS011;15458;53.346;-1.688;2022-11-20T00:41:06;29.80;;;13.27;;
28170;SDS011;15458;53.346;-1.688;2022-11-20T00:43:33;39.33;;;13.63;;
28170;SDS011;15458;53.346;-1.688;2022-11-20T00:46:03;30.17;;;13.23;;
28170;SDS011;15458;53.346;-1.688;2022-11-20T00:48:31;33.53;;;12.73;;
28170;SDS011;15458;53.346;-1.688;2022-11-20T00:50:57;32.67;;;12.85;;
28170;SDS011;15458;53.346;-1.688;2022-11-20T00:53:23;31.05;;;13.02;;
28170;SDS011;15458;53.346;-1.688;2022-11-20T00:56:03;26.23;;;13.52;;
28170;SDS011;15458;53.346;-1.688;2022-11-20T00:58:31;34.53;;;13.07;;
28170;SDS011;15458;53.346;-1.688;2022-11-20T01:01:03;36.13;;;13.55;;
28170;SDS011;15458;53.346;-1.688;2022-11-20T01:03:37;29.02;;;12.50;;
28170;SDS011;15458;53.346;-1.688;2022-11-20T01:06:05;34.25;;;13.18;;
28170;SDS011;15458;53.346;-1.688;2022-11-20T01:08:34;30.90;;;13.75;;
28170;SDS011;15458;53.346;-1.688;2022-11-20T01:11:01;30.77;;;12.45;;
28170;SDS011;15458;53.346;-1.688;2022-11-20T01:13:29;28.08;;;11.57;;
28170;SDS011;15458;53.346;-1.688;2022-11-20T01:16:15;30.45;;;11.73;;
28170;SDS011;15458;53.346;-1.688;2022-11-20T01:18:43;32.53;;;12.55;;
28170;SDS011;15458;53.346;-1.688;2022-11-20T01:21:11;28.05;;;12.60;;
28170;SDS011;15458;53.346;-1.688;2022-11-20T01:23:42;37.38;;;12.23;;
28170;SDS011;15458;53.346;-1.688;2022-11-20T01:26:10;35.33;;;12.48;;
28170;SDS011;15458;53.346;-1.688;2022-11-20T01:28:40;36.55;;;13.05;;
28170;SDS011;15458;53.346;-1.688;2022-11-20T01:31:15;31.08;;;12.60;;
28170;SDS011;15458;53.346;-1.688;2022-11-20T01:33:42;35.33;;;12.82;;
28170;SDS011;15458;53.346;-1.688;2022-11-20T01:36:09;32.75;;;12.30;;
28170;SDS011;15458;53.346;-1.688;2022-11-20T01:38:35;31.08;;;12.88;;
28170;SDS011;15458;53.346;-1.688;2022-11-20T01:41:04;30.02;;;13.60;;
28170;SDS011;15458;53.346;-1.688;2022-11-20T01:43:31;31.65;;;11.55;;
28170;SDS011;15458;53.346;-1.688;2022-11-20T01:48:40;31.52;;;12.02;;
28170;SDS011;15458;53.346;-1.688;2022-11-20T01:53:59;30.05;;;12.18;;
28170;SDS011;15458;53.346;-1.688;2022-11-20T01:56:29;35.13;;;12.73;;
28170;SDS011;15458;53.346;-1.688;2022-11-20T01:58:59;25.08;;;12.02;;
28170;SDS011;15458;53.346;-1.688;2022-11-20T02:01:27;35.35;;;12.73;;
28170;SDS011;15458;53.346;-1.688;2022-11-20T02:03:53;36.95;;;12.75;;
28170;SDS011;15458;53.346;-1.688;2022-11-20T02:06:23;27.92;;;11.10;;
28170;SDS011;15458;53.346;-1.688;2022-11-20T02:08:57;27.98;;;11.55;;
28170;SDS011;15458;53.346;-1.688;2022-11-20T02:11:24;24.13;;;12.05;;
28170;SDS011;15458;53.346;-1.688;2022-11-20T02:13:49;27.38;;;12.13;;
28170;SDS011;15458;53.346;-1.688;2022-11-20T02:18:42;31.73;;;13.23;;
28170;SDS011;15458;53.346;-1.688;2022-11-20T02:21:23;25.52;;;11.60;;
28170;SDS011;15458;53.346;-1.688;2022-11-20T02:26:18;29.60;;;10.55;;
28170;SDS011;15458;53.346;-1.688;2022-11-20T02:28:47;30.92;;;11.00;;
28170;SDS011;15458;53.346;-1.688;2022-11-20T02:31:12;29.98;;;10.73;;
28170;SDS011;15458;53.346;-1.688;2022-11-20T02:33:38;31.45;;;12.50;;
28170;SDS011;15458;53.346;-1.688;2022-11-20T02:36:04;27.58;;;10.50;;
28170;SDS011;15458;53.346;-1.688;2022-11-20T02:38:30;29.40;;;12.50;;
28170;SDS011;15458;53.346;-1.688;2022-11-20T02:40:58;26.17;;;10.98;;
28170;SDS011;15458;53.346;-1.688;2022-11-20T02:43:23;32.15;;;12.88;;
28170;SDS011;15458;53.346;-1.688;2022-11-20T02:45:49;29.52;;;11.68;;
28170;SDS011;15458;53.346;-1.688;2022-11-20T02:48:15;32.95;;;12.13;;
28170;SDS011;15458;53.346;-1.688;2022-11-20T02:50:40;24.20;;;10.15;;
28170;SDS011;15458;53.346;-1.688;2022-11-20T02:53:06;21.73;;;10.10;;
28170;SDS011;15458;53.346;-1.688;2022-11-20T02:55:32;31.35;;;11.13;;
28170;SDS011;15458;53.346;-1.688;2022-11-20T02:57:58;28.27;;;10.65;;
28170;SDS011;15458;53.346;-1.688;2022-11-20T03:00:24;24.05;;;9.95;;
28170;SDS011;15458;53.346;-1.688;2022-11-20T03:02:49;25.20;;;10.25;;
28170;SDS011;15458;53.346;-1.688;2022-11-20T03:05:15;21.58;;;9.82;;
28170;SDS011;15458;53.346;-1.688;2022-11-20T03:07:40;25.08;;;9.77;;
28170;SDS011;15458;53.346;-1.688;2022-11-20T03:10:08;31.17;;;9.38;;
28170;SDS011;15458;53.346;-1.688;2022-11-20T03:12:33;21.42;;;9.20;;
28170;SDS011;15458;53.346;-1.688;2022-11-20T03:14:59;18.08;;;8.98;;
28170;SDS011;15458;53.346;-1.688;2022-11-20T03:17:25;25.38;;;8.88;;
28170;SDS011;15458;53.346;-1.688;2022-11-20T03:19:50;23.38;;;7.97;;
28170;SDS011;15458;53.346;-1.688;2022-11-20T03:22:16;21.35;;;8.40;;
28170;SDS011;15458;53.346;-1.688;2022-11-20T03:24:42;24.15;;;7.88;;
28170;SDS011;15458;53.346;-1.688;2022-11-20T03:27:07;14.98;;;7.50;;
28170;SDS011;15458;53.346;-1.688;2022-11-20T03:29:34;16.33;;;6.72;;
28170;SDS011;15458;53.346;-1.688;2022-11-20T03:32:00;19.30;;;7.57;;
28170;SDS011;15458;53.346;-1.688;2022-11-20T03:34:26;18.77;;;7.57;;
28170;SDS011;15458;53.346;-1.688;2022-11-20T03:36:51;18.00;;;6.88;;
28170;SDS011;15458;53.346;-1.688;2022-11-20T03:39:17;21.70;;;6.43;;
28170;SDS011;15458;53.346;-1.688;2022-11-20T03:41:43;22.92;;;7.93;;
28170;SDS011;15458;53.346;-1.688;2022-11-20T03:44:10;19.45;;;7.00;;
28170;SDS011;15458;53.346;-1.688;2022-11-20T03:46:38;18.35;;;6.93;;
28170;SDS011;15458;53.346;-1.688;2022-11-20T03:49:04;22.17;;;6.55;;
28170;SDS011;15458;53.346;-1.688;2022-11-20T03:51:31;18.00;;;6.32;;
28170;SDS011;15458;53.346;-1.688;2022-11-20T03:53:58;15.05;;;6.35;;
28170;SDS011;15458;53.346;-1.688;2022-11-20T03:56:26;17.83;;;7.50;;
28170;SDS011;15458;53.346;-1.688;2022-11-20T03:58:57;22.00;;;6.53;;
28170;SDS011;15458;53.346;-1.688;2022-11-20T04:01:26;12.93;;;5.70;;
28170;SDS011;15458;53.346;-1.688;2022-11-20T04:03:55;15.52;;;5.88;;
28170;SDS011;15458;53.346;-1.688;2022-11-20T04:06:25;13.38;;;5.43;;
28170;SDS011;15458;53.346;-1.688;2022-11-20T04:08:56;12.68;;;5.38;;
28170;SDS011;15458;53.346;-1.688;2022-11-20T04:11:32;13.85;;;5.47;;
28170;SDS011;15458;53.346;-1.688;2022-11-20T04:14:02;11.27;;;4.82;;
28170;SDS011;15458;53.346;-1.688;2022-11-20T04:16:30;8.45;;;4.90;;
28170;SDS011;15458;53.346;-1.688;2022-11-20T04:19:01;12.52;;;4.65;;
28170;SDS011;15458;53.346;-1.688;2022-11-20T04:21:28;8.20;;;4.65;;
28170;SDS011;15458;53.346;-1.688;2022-11-20T04:23:54;10.32;;;4.80;;
28170;SDS011;15458;53.346;-1.688;2022-11-20T04:26:21;12.35;;;5.88;;
28170;SDS011;15458;53.346;-1.688;2022-11-20T04:28:48;13.57;;;5.32;;
28170;SDS011;15458;53.346;-1.688;2022-11-20T04:31:15;6.85;;;3.75;;
28170;SDS011;15458;53.346;-1.688;2022-11-20T04:33:45;8.30;;;3.63;;
28170;SDS011;15458;53.346;-1.688;2022-11-20T04:36:21;8.57;;;3.92;;
28170;SDS011;15458;53.346;-1.688;2022-11-20T04:39:11;6.85;;;3.70;;
28170;SDS011;15458;53.346;-1.688;2022-11-20T04:41:38;5.30;;;3.50;;
28170;SDS011;15458;53.346;-1.688;2022-11-20T04:44:04;7.63;;;3.58;;
28170;SDS011;15458;53.346;-1.688;2022-11-20T04:46:38;4.95;;;3.30;;
28170;SDS011;15458;53.346;-1.688;2022-11-20T04:49:05;7.20;;;3.50;;
28170;SDS011;15458;53.346;-1.688;2022-11-20T04:51:32;7.25;;;2.67;;
28170;SDS011;15458;53.346;-1.688;2022-11-20T04:53:58;4.72;;;2.75;;
28170;SDS011;15458;53.346;-1.688;2022-11-20T04:56:23;6.05;;;2.80;;
28170;SDS011;15458;53.346;-1.688;2022-11-20T04:58:49;5.15;;;2.50;;
28170;SDS011;15458;53.346;-1.688;2022-11-20T05:01:15;4.03;;;2.35;;
28170;SDS011;15458;53.346;-1.688;2022-11-20T05:03:43;3.08;;;2.30;;
28170;SDS011;15458;53.346;-1.688;2022-11-20T05:06:11;2.20;;;1.85;;
28170;SDS011;15458;53.346;-1.688;2022-11-20T05:08:38;3.47;;;2.50;;
28170;SDS011;15458;53.346;-1.688;2022-11-20T05:11:15;3.13;;;2.03;;
28170;SDS011;15458;53.346;-1.688;2022-11-20T05:14:02;4.30;;;2.58;;
28170;SDS011;15458;53.346;-1.688;2022-11-20T05:16:28;4.97;;;2.00;;
28170;SDS011;15458;53.346;-1.688;2022-11-20T05:18:59;1.80;;;1.50;;
28170;SDS011;15458;53.346;-1.688;2022-11-20T05:21:24;2.63;;;1.75;;
28170;SDS011;15458;53.346;-1.688;2022-11-20T05:23:53;1.45;;;1.13;;
28170;SDS011;15458;53.346;-1.688;2022-11-20T05:26:20;1.35;;;0.90;;
28170;SDS011;15458;53.346;-1.688;2022-11-20T05:28:47;2.88;;;1.10;;
28170;SDS011;15458;53.346;-1.688;2022-11-20T05:31:16;1.17;;;1.10;;
28170;SDS011;15458;53.346;-1.688;2022-11-20T05:33:47;1.98;;;1.30;;
28170;SDS011;15458;53.346;-1.688;2022-11-20T05:36:13;1.40;;;1.00;;
28170;SDS011;15458;53.346;-1.688;2022-11-20T05:38:43;1.63;;;1.00;;
28170;SDS011;15458;53.346;-1.688;2022-11-20T05:41:10;3.97;;;1.30;;
28170;SDS011;15458;53.346;-1.688;2022-11-20T05:43:39;1.88;;;1.50;;
28170;SDS011;15458;53.346;-1.688;2022-11-20T05:46:06;1.40;;;1.02;;
28170;SDS011;15458;53.346;-1.688;2022-11-20T05:48:34;2.00;;;1.10;;
28170;SDS011;15458;53.346;-1.688;2022-11-20T05:51:00;1.25;;;1.13;;
28170;SDS011;15458;53.346;-1.688;2022-11-20T05:53:27;1.10;;;1.00;;
28170;SDS011;15458;53.346;-1.688;2022-11-20T05:55:59;1.20;;;1.10;;
28170;SDS011;15458;53.346;-1.688;2022-11-20T05:58:26;1.55;;;1.00;;
28170;SDS011;15458;53.346;-1.688;2022-11-20T06:00:52;3.28;;;1.30;;
28170;SDS011;15458;53.346;-1.688;2022-11-20T06:03:18;3.50;;;0.90;;
28170;SDS011;15458;53.346;-1.688;2022-11-20T06:05:43;2.08;;;0.98;;
28170;SDS011;15458;53.346;-1.688;2022-11-20T06:08:09;1.38;;;1.00;;
28170;SDS011;15458;53.346;-1.688;2022-11-20T06:10:35;1.58;;;1.27;;
28170;SDS011;15458;53.346;-1.688;2022-11-20T06:13:00;0.75;;;0.75;;
28170;SDS011;15458;53.346;-1.688;2022-11-20T06:15:26;1.67;;;0.90;;
28170;SDS011;15458;53.346;-1.688;2022-11-20T06:17:52;1.08;;;0.88;;
28170;SDS011;15458;53.346;-1.688;2022-11-20T06:20:19;1.27;;;1.10;;
28170;SDS011;15458;53.346;-1.688;2022-11-20T06:22:45;1.67;;;1.05;;
28170;SDS011;15458;53.346;-1.688;2022-11-20T06:25:11;1.05;;;0.98;;
28170;SDS011;15458;53.346;-1.688;2022-11-20T06:27:36;1.38;;;1.15;;
28170;SDS011;15458;53.346;-1.688;2022-11-20T06:30:02;1.00;;;0.90;;
28170;SDS011;15458;53.346;-1.688;2022-11-20T06:32:28;2.10;;;1.55;;
28170;SDS011;15458;53.346;-1.688;2022-11-20T06:34:54;3.08;;;1.45;;
28170;SDS011;15458;53.346;-1.688;2022-11-20T06:37:20;1.38;;;1.10;;
28170;SDS011;15458;53.346;-1.688;2022-11-20T06:39:45;2.65;;;1.00;;
28170;SDS011;15458;53.346;-1.688;2022-11-20T06:42:11;2.17;;;1.13;;
28170;SDS011;15458;53.346;-1.688;2022-11-20T06:44:37;6.57;;;1.70;;
28170;SDS011;15458;53.346;-1.688;2022-11-20T06:47:02;1.48;;;0.80;;
28170;SDS011;15458;53.346;-1.688;2022-11-20T06:49:28;4.32;;;1.60;;
28170;SDS011;15458;53.346;-1.688;2022-11-20T06:51:54;4.03;;;1.52;;
28170;SDS011;15458;53.346;-1.688;2022-11-20T06:54:19;5.53;;;1.80;;
28170;SDS011;15458;53.346;-1.688;2022-11-20T06:56:48;10.82;;;2.60;;
28170;SDS011;15458;53.346;-1.688;2022-11-20T06:59:14;11.98;;;2.17;;
28170;SDS011;15458;53.346;-1.688;2022-11-20T07:01:41;8.13;;;2.35;;
28170;SDS011;15458;53.346;-1.688;2022-11-20T07:04:06;9.75;;;2.08;;
28170;SDS011;15458;53.346;-1.688;2022-11-20T07:06:32;9.88;;;3.55;;
28170;SDS011;15458;53.346;-1.688;2022-11-20T07:08:58;9.93;;;2.38;;
28170;SDS011;15458;53.346;-1.688;2022-11-20T07:11:24;11.57;;;2.60;;
28170;SDS011;15458;53.346;-1.688;2022-11-20T07:13:49;7.55;;;2.13;;
28170;SDS011;15458;53.346;-1.688;2022-11-20T07:16:15;9.02;;;2.72;;
28170;SDS011;15458;53.346;-1.688;2022-11-20T07:18:42;7.40;;;2.78;;
28170;SDS011;15458;53.346;-1.688;2022-11-20T07:21:09;11.75;;;3.45;;
28170;SDS011;15458;53.346;-1.688;2022-11-20T07:23:35;11.23;;;3.28;;
28170;SDS011;15458;53.346;-1.688;2022-11-20T07:26:07;10.48;;;3.60;;
28170;SDS011;15458;53.346;-1.688;2022-11-20T07:28:34;11.63;;;3.83;;
28170;SDS011;15458;53.346;-1.688;2022-11-20T07:31:01;13.20;;;4.28;;
28170;SDS011;15458;53.346;-1.688;2022-11-20T07:33:27;12.40;;;3.97;;
28170;SDS011;15458;53.346;-1.688;2022-11-20T07:35:53;19.35;;;4.78;;
28170;SDS011;15458;53.346;-1.688;2022-11-20T07:38:19;18.13;;;4.97;;
28170;SDS011;15458;53.346;-1.688;2022-11-20T07:40:45;15.98;;;5.15;;
28170;SDS011;15458;53.346;-1.688;2022-11-20T07:43:14;20.73;;;6.38;;
28170;SDS011;15458;53.346;-1.688;2022-11-20T07:45:45;26.55;;;7.88;;
28170;SDS011;15458;53.346;-1.688;2022-11-20T07:48:11;12.07;;;5.38;;
28170;SDS011;15458;53.346;-1.688;2022-11-20T07:50:38;19.88;;;6.50;;
28170;SDS011;15458;53.346;-1.688;2022-11-20T07:53:04;19.25;;;5.70;;
28170;SDS011;15458;53.346;-1.688;2022-11-20T07:55:32;25.02;;;8.63;;
28170;SDS011;15458;53.346;-1.688;2022-11-20T07:58:03;25.85;;;7.15;;
28170;SDS011;15458;53.346;-1.688;2022-11-20T08:00:32;15.70;;;5.50;;
28170;SDS011;15458;53.346;-1.688;2022-11-20T08:02:57;27.02;;;7.05;;
28170;SDS011;15458;53.346;-1.688;2022-11-20T08:05:24;20.92;;;5.75;;
28170;SDS011;15458;53.346;-1.688;2022-11-20T08:07:49;24.75;;;6.15;;
28170;SDS011;15458;53.346;-1.688;2022-11-20T08:10:15;20.63;;;5.95;;
28170;SDS011;15458;53.346;-1.688;2022-11-20T08:12:48;22.33;;;5.80;;
28170;SDS011;15458;53.346;-1.688;2022-11-20T08:15:33;21.40;;;5.78;;
28170;SDS011;15458;53.346;-1.688;2022-11-20T08:18:03;15.60;;;4.97;;
28170;SDS011;15458;53.346;-1.688;2022-11-20T08:20:31;20.17;;;4.50;;
28170;SDS011;15458;53.346;-1.688;2022-11-20T08:23:00;23.35;;;4.78;;
28170;SDS011;15458;53.346;-1.688;2022-11-20T08:25:28;19.80;;;4.82;;
28170;SDS011;15458;53.346;-1.688;2022-11-20T08:27:56;16.15;;;3.50;;
28170;SDS011;15458;53.346;-1.688;2022-11-20T08:30:26;14.63;;;4.15;;
28170;SDS011;15458;53.346;-1.688;2022-11-20T08:32:52;15.13;;;5.68;;
28170;SDS011;15458;53.346;-1.688;2022-11-20T08:35:18;14.65;;;4.00;;
28170;SDS011;15458;53.346;-1.688;2022-11-20T08:37:47;17.25;;;3.95;;
28170;SDS011;15458;53.346;-1.688;2022-11-20T08:40:14;19.10;;;3.75;;
28170;SDS011;15458;53.346;-1.688;2022-11-20T08:42:47;23.00;;;4.90;;
28170;SDS011;15458;53.346;-1.688;2022-11-20T08:45:15;23.90;;;3.53;;
28170;SDS011;15458;53.346;-1.688;2022-11-20T08:47:44;28.17;;;3.83;;
28170;SDS011;15458;53.346;-1.688;2022-11-20T08:50:11;16.67;;;4.18;;
28170;SDS011;15458;53.346;-1.688;2022-11-20T08:52:44;45.55;;;3.85;;
28170;SDS011;15458;53.346;-1.688;2022-11-20T08:55:12;19.38;;;3.55;;
28170;SDS011;15458;53.346;-1.688;2022-11-20T08:57:43;30.13;;;4.40;;
28170;SDS011;15458;53.346;-1.688;2022-11-20T09:00:09;17.40;;;3.03;;
28170;SDS011;15458;53.346;-1.688;2022-11-20T09:05:08;28.67;;;4.75;;
28170;SDS011;15458;53.346;-1.688;2022-11-20T09:07:37;24.02;;;5.10;;
28170;SDS011;15458;53.346;-1.688;2022-11-20T09:10:07;27.30;;;4.28;;
28170;SDS011;15458;53.346;-1.688;2022-11-20T09:12:36;26.77;;;5.55;;
28170;SDS011;15458;53.346;-1.688;2022-11-20T09:15:03;32.03;;;4.95;;
28170;SDS011;15458;53.346;-1.688;2022-11-20T09:17:29;23.35;;;5.15;;
28170;SDS011;15458;53.346;-1.688;2022-11-20T09:19:59;33.13;;;5.05;;
28170;SDS011;15458;53.346;-1.688;2022-11-20T09:22:26;23.27;;;5.20;;
28170;SDS011;15458;53.346;-1.688;2022-11-20T09:24:52;17.65;;;3.83;;
28170;SDS011;15458;53.346;-1.688;2022-11-20T09:27:19;25.05;;;4.60;;
28170;SDS011;15458;53.346;-1.688;2022-11-20T09:29:48;27.17;;;4.50;;
28170;SDS011;15458;53.346;-1.688;2022-11-20T09:32:14;19.15;;;3.60;;
28170;SDS011;15458;53.346;-1.688;2022-11-20T09:34:40;28.17;;;4.22;;
28170;SDS011;15458;53.346;-1.688;2022-11-20T09:37:06;24.55;;;4.68;;
28170;SDS011;15458;53.346;-1.688;2022-11-20T09:39:34;27.48;;;4.97;;
28170;SDS011;15458;53.346;-1.688;2022-11-20T09:44:55;20.33;;;3.85;;
28170;SDS011;15458;53.346;-1.688;2022-11-20T09:47:51;26.25;;;3.22;;
28170;SDS011;15458;53.346;-1.688;2022-11-20T09:50:43;18.75;;;3.13;;
28170;SDS011;15458;53.346;-1.688;2022-11-20T09:56:08;21.55;;;3.45;;
28170;SDS011;15458;53.346;-1.688;2022-11-20T09:58:49;17.52;;;3.10;;
28170;SDS011;15458;53.346;-1.688;2022-11-20T10:01:26;19.90;;;2.33;;
28170;SDS011;15458;53.346;-1.688;2022-11-20T10:04:16;17.65;;;2.28;;
28170;SDS011;15458;53.346;-1.688;2022-11-20T10:09:34;12.60;;;2.58;;
28170;SDS011;15458;53.346;-1.688;2022-11-20T10:31:55;12.50;;;2.15;;
28170;SDS011;15458;53.346;-1.688;2022-11-20T10:37:01;18.15;;;2.60;;
28170;SDS011;15458;53.346;-1.688;2022-11-20T10:42:46;20.30;;;2.85;;
28170;SDS011;15458;53.346;-1.688;2022-11-20T10:48:07;18.80;;;3.08;;
28170;SDS011;15458;53.346;-1.688;2022-11-20T10:50:40;18.90;;;2.63;;
28170;SDS011;15458;53.346;-1.688;2022-11-20T10:56:45;15.25;;;2.88;;
28170;SDS011;15458;53.346;-1.688;2022-11-20T11:01:54;17.70;;;3.10;;
28170;SDS011;15458;53.346;-1.688;2022-11-20T11:04:40;14.23;;;2.92;;
28170;SDS011;15458;53.346;-1.688;2022-11-20T11:07:23;19.50;;;3.72;;
28170;SDS011;15458;53.346;-1.688;2022-11-20T11:09:51;15.57;;;3.55;;
28170;SDS011;15458;53.346;-1.688;2022-11-20T11:12:26;19.23;;;2.97;;
28170;SDS011;15458;53.346;-1.688;2022-11-20T11:14:56;17.58;;;2.53;;
28170;SDS011;15458;53.346;-1.688;2022-11-20T11:20:00;18.08;;;2.80;;
28170;SDS011;15458;53.346;-1.688;2022-11-20T11:22:33;17.08;;;3.28;;
28170;SDS011;15458;53.346;-1.688;2022-11-20T11:25:25;17.88;;;2.92;;
28170;SDS011;15458;53.346;-1.688;2022-11-20T11:28:04;16.40;;;2.80;;
28170;SDS011;15458;53.346;-1.688;2022-11-20T11:30:52;12.70;;;2.78;;
28170;SDS011;15458;53.346;-1.688;2022-11-20T11:33:25;24.10;;;3.70;;
28170;SDS011;15458;53.346;-1.688;2022-11-20T11:36:02;12.20;;;1.73;;
28170;SDS011;15458;53.346;-1.688;2022-11-20T11:38:54;20.05;;;3.00;;
28170;SDS011;15458;53.346;-1.688;2022-11-20T11:41:28;13.32;;;2.92;;
28170;SDS011;15458;53.346;-1.688;2022-11-20T11:44:04;16.52;;;3.58;;
28170;SDS011;15458;53.346;-1.688;2022-11-20T11:47:03;19.38;;;3.13;;
28170;SDS011;15458;53.346;-1.688;2022-11-20T11:56:05;15.52;;;3.60;;
28170;SDS011;15458;53.346;-1.688;2022-11-20T11:58:51;16.63;;;2.78;;
28170;SDS011;15458;53.346;-1.688;2022-11-20T12:01:32;15.25;;;3.97;;
28170;SDS011;15458;53.346;-1.688;2022-11-20T12:04:45;17.77;;;3.60;;
28170;SDS011;15458;53.346;-1.688;2022-11-20T12:11:23;15.52;;;2.65;;
28170;SDS011;15458;53.346;-1.688;2022-11-20T12:14:17;16.35;;;3.03;;
28170;SDS011;15458;53.346;-1.688;2022-11-20T12:16:52;15.35;;;2.80;;
28170;SDS011;15458;53.346;-1.688;2022-11-20T12:19:29;12.57;;;2.38;;
28170;SDS011;15458;53.346;-1.688;2022-11-20T12:30:21;15.77;;;3.38;;
28170;SDS011;15458;53.346;-1.688;2022-11-20T12:43:30;19.63;;;2.67;;
28170;SDS011;15458;53.346;-1.688;2022-11-20T12:57:24;15.50;;;2.47;;
28170;SDS011;15458;53.346;-1.688;2022-11-20T13:00:16;16.65;;;2.65;;
28170;SDS011;15458;53.346;-1.688;2022-11-20T13:08:48;14.40;;;2.38;;
28170;SDS011;15458;53.346;-1.688;2022-11-20T13:11:25;26.67;;;4.32;;
28170;SDS011;15458;53.346;-1.688;2022-11-20T13:16:40;17.52;;;3.08;;
28170;SDS011;15458;53.346;-1.688;2022-11-20T13:19:13;18.48;;;2.70;;
28170;SDS011;15458;53.346;-1.688;2022-11-20T13:21:45;19.63;;;2.75;;
28170;SDS011;15458;53.346;-1.688;2022-11-20T13:27:05;15.23;;;2.58;;
28170;SDS011;15458;53.346;-1.688;2022-11-20T13:29:47;16.98;;;2.33;;
28170;SDS011;15458;53.346;-1.688;2022-11-20T13:32:26;16.42;;;2.58;;
28170;SDS011;15458;53.346;-1.688;2022-11-20T13:35:00;18.73;;;2.60;;
28170;SDS011;15458;53.346;-1.688;2022-11-20T13:37:32;12.73;;;3.28;;
28170;SDS011;15458;53.346;-1.688;2022-11-20T13:42:43;20.98;;;2.65;;
28170;SDS011;15458;53.346;-1.688;2022-11-20T13:45:26;21.63;;;2.58;;
28170;SDS011;15458;53.346;-1.688;2022-11-20T13:47:53;17.58;;;3.05;;
28170;SDS011;15458;53.346;-1.688;2022-11-20T13:50:31;20.20;;;4.28;;
28170;SDS011;15458;53.346;-1.688;2022-11-20T13:53:15;19.02;;;4.50;;
28170;SDS011;15458;53.346;-1.688;2022-11-20T13:55:54;19.30;;;3.50;;
28170;SDS011;15458;53.346;-1.688;2022-11-20T14:01:35;14.15;;;3.00;;
28170;SDS011;15458;53.346;-1.688;2022-11-20T14:04:15;14.00;;;3.28;;
28170;SDS011;15458;53.346;-1.688;2022-11-20T14:06:59;16.35;;;2.90;;
28170;SDS011;15458;53.346;-1.688;2022-11-20T14:09:31;18.70;;;2.22;;
28170;SDS011;15458;53.346;-1.688;2022-11-20T14:11:57;17.90;;;3.03;;
28170;SDS011;15458;53.346;-1.688;2022-11-20T14:14:24;20.73;;;3.55;;
28170;SDS011;15458;53.346;-1.688;2022-11-20T14:16:52;14.52;;;2.72;;
28170;SDS011;15458;53.346;-1.688;2022-11-20T14:19:32;18.58;;;3.20;;
28170;SDS011;15458;53.346;-1.688;2022-11-20T14:27:40;14.80;;;3.08;;
28170;SDS011;15458;53.346;-1.688;2022-11-20T14:30:17;15.27;;;3.20;;
28170;SDS011;15458;53.346;-1.688;2022-11-20T14:32:45;14.77;;;3.10;;
28170;SDS011;15458;53.346;-1.688;2022-11-20T14:35:34;19.15;;;4.05;;
28170;SDS011;15458;53.346;-1.688;2022-11-20T14:38:08;14.43;;;3.78;;
28170;SDS011;15458;53.346;-1.688;2022-11-20T14:40:37;17.13;;;2.65;;
28170;SDS011;15458;53.346;-1.688;2022-11-20T14:43:22;18.42;;;2.85;;
28170;SDS011;15458;53.346;-1.688;2022-11-20T14:46:03;19.45;;;2.63;;
28170;SDS011;15458;53.346;-1.688;2022-11-20T14:48:41;18.27;;;2.92;;
28170;SDS011;15458;53.346;-1.688;2022-11-20T14:54:19;15.48;;;3.45;;
28170;SDS011;15458;53.346;-1.688;2022-11-20T14:56:54;16.55;;;2.58;;
28170;SDS011;15458;53.346;-1.688;2022-11-20T14:59:25;17.67;;;5.03;;
28170;SDS011;15458;53.346;-1.688;2022-11-20T15:02:02;19.25;;;3.80;;
28170;SDS011;15458;53.346;-1.688;2022-11-20T15:04:48;62.03;;;20.17;;
28170;SDS011;15458;53.346;-1.688;2022-11-20T15:10:06;31.65;;;8.48;;
28170;SDS011;15458;53.346;-1.688;2022-11-20T15:15:17;27.27;;;8.45;;
28170;SDS011;15458;53.346;-1.688;2022-11-20T15:18:03;15.10;;;6.57;;
28170;SDS011;15458;53.346;-1.688;2022-11-20T15:20:30;10.65;;;3.03;;
28170;SDS011;15458;53.346;-1.688;2022-11-20T15:22:58;17.42;;;4.40;;
28170;SDS011;15458;53.346;-1.688;2022-11-20T15:25:24;15.15;;;2.47;;
28170;SDS011;15458;53.346;-1.688;2022-11-20T15:27:54;12.70;;;2.85;;
28170;SDS011;15458;53.346;-1.688;2022-11-20T15:30:21;9.05;;;3.13;;
28170;SDS011;15458;53.346;-1.688;2022-11-20T15:32:47;11.23;;;2.10;;
28170;SDS011;15458;53.346;-1.688;2022-11-20T15:35:14;11.77;;;2.38;;
28170;SDS011;15458;53.346;-1.688;2022-11-20T15:37:40;9.07;;;2.63;;
28170;SDS011;15458;53.346;-1.688;2022-11-20T15:40:08;12.38;;;3.33;;
28170;SDS011;15458;53.346;-1.688;2022-11-20T15:42:34;9.85;;;3.38;;
28170;SDS011;15458;53.346;-1.688;2022-11-20T15:45:00;15.27;;;4.45;;
28170;SDS011;15458;53.346;-1.688;2022-11-20T15:47:30;9.48;;;2.00;;
28170;SDS011;15458;53.346;-1.688;2022-11-20T15:49:58;8.27;;;1.67;;
28170;SDS011;15458;53.346;-1.688;2022-11-20T15:52:23;10.50;;;2.00;;
28170;SDS011;15458;53.346;-1.688;2022-11-20T15:54:49;4.35;;;1.50;;
28170;SDS011;15458;53.346;-1.688;2022-11-20T15:57:15;7.93;;;1.67;;
28170;SDS011;15458;53.346;-1.688;2022-11-20T15:59:41;8.77;;;1.90;;
28170;SDS011;15458;53.346;-1.688;2022-11-20T16:02:13;8.07;;;1.20;;
28170;SDS011;15458;53.346;-1.688;2022-11-20T16:04:40;2.83;;;1.13;;
28170;SDS011;15458;53.346;-1.688;2022-11-20T16:07:06;5.32;;;0.93;;
28170;SDS011;15458;53.346;-1.688;2022-11-20T16:09:32;1.45;;;0.68;;
28170;SDS011;15458;53.346;-1.688;2022-11-20T16:11:58;3.65;;;0.73;;
28170;SDS011;15458;53.346;-1.688;2022-11-20T16:14:24;1.67;;;0.70;;
28170;SDS011;15458;53.346;-1.688;2022-11-20T16:17:10;3.05;;;1.00;;
28170;SDS011;15458;53.346;-1.688;2022-11-20T16:19:36;1.25;;;0.63;;
28170;SDS011;15458;53.346;-1.688;2022-11-20T16:22:02;3.72;;;1.33;;
28170;SDS011;15458;53.346;-1.688;2022-11-20T16:24:27;3.80;;;0.43;;
28170;SDS011;15458;53.346;-1.688;2022-11-20T16:26:54;3.78;;;0.70;;
28170;SDS011;15458;53.346;-1.688;2022-11-20T16:29:20;1.73;;;0.80;;
28170;SDS011;15458;53.346;-1.688;2022-11-20T16:31:45;1.13;;;0.57;;
28170;SDS011;15458;53.346;-1.688;2022-11-20T16:34:12;1.55;;;0.68;;
28170;SDS011;15458;53.346;-1.688;2022-11-20T16:36:40;1.02;;;0.45;;
28170;SDS011;15458;53.346;-1.688;2022-11-20T16:39:07;1.67;;;0.63;;
28170;SDS011;15458;53.346;-1.688;2022-11-20T16:41:33;1.75;;;0.65;;
28170;SDS011;15458;53.346;-1.688;2022-11-20T16:44:02;0.43;;;0.40;;
28170;SDS011;15458;53.346;-1.688;2022-11-20T16:46:31;2.65;;;0.60;;
28170;SDS011;15458;53.346;-1.688;2022-11-20T16:49:12;1.45;;;0.50;;
28170;SDS011;15458;53.346;-1.688;2022-11-20T16:51:46;2.67;;;0.85;;